Crescent City, California
Current Conditions -  °F | °C
As of 3:56 PM on Monday 20 Oct 2014 (Local Time) from KCEC Reporting Station
Light Rain Light Rain  
Wind Chill: 56°   Ceiling: 7000
Heat Index: 56°   Visibility: 10mi
Dew Point: 55°   Wind: 5mph
Humidity: 97%   Direction: 120°ESE
Pressure: 29.9"   Gusts: NA
Location:  41.74°N, 124.16°W
Report Text: KCEC 202256Z AUTO 12004KT 10SM -RA FEW060 OVC070 13/13 A2990 RMK AO2 SLP127 P0010 T01330128
Loading
Personal Weather Stations






























Interactive Weather Map
Tropical Storm Tracking
New forecast layout! Learn more

10-Day Weather Forecast

Advertisements
Track Severe Weather on mobile